Atlanta, Kansas
Current Conditions -  °F | °C
As of 10:35 PM on Friday 19 Dec 2014 (Local Time) from KEQA Reporting Station
Overcast Overcast  
Wind Chill: 37°   Ceiling: 1400
Heat Index: 37°   Visibility: 10mi
Dew Point: 34°   Wind: 3mph
Humidity: 87%   Direction: 210°SSW
Pressure: 30.17"   Gusts: NA
Location:  37.44°N, 96.76°W
Report Text: KEQA 200435Z AUTO 21003KT 10SM OVC014 03/01 A3017 RMK AO2
Loading
Personal Weather Stations






























Interactive Weather Map New forecast layout! Learn more

10-Day Weather Forecast

Advertisements
Track Severe Weather on mobile